Time;durP1;ratioP1;P1;durP2;ratioP2;P2;SDS_P1;SDS_P2;PMS_P1;PMS_P2;Temp;Humidity;BMP_temperature;BMP_pressure;BME280_temperature;BME280_humidity;BME280_pressure;Samples;Min_cycle;Max_cycle;Signal;HPM_P1;HPM_P2
2023/12/01 00:01:12;;;;;;;32.20;18.90;;;;;;;0.72;100.00;98907.38;1455628;90;22029;-77
2023/12/01 00:03:39;;;;;;;31.90;17.27;;;;;;;0.76;100.00;98913.98;1451868;90;21814;-77
2023/12/01 00:06:06;;;;;;;29.47;19.00;;;;;;;0.78;100.00;98910.80;1454518;90;21796;-76
2023/12/01 00:08:32;;;;;;;29.57;19.70;;;;;;;0.79;100.00;98915.05;1452194;90;21997;-77
2023/12/01 00:10:59;;;;;;;32.87;18.83;;;;;;;0.76;100.00;98909.26;1453502;90;21853;-75
2023/12/01 00:13:25;;;;;;;28.53;17.50;;;;;;;0.67;100.00;98907.73;1460162;90;21815;-77
2023/12/01 00:15:55;;;;;;;28.07;18.00;;;;;;;0.58;100.00;98905.05;1450487;90;21888;-77
2023/12/01 00:18:20;;;;;;;27.27;17.53;;;;;;;0.56;100.00;98905.63;1462389;90;21935;-76
2023/12/01 00:20:46;;;;;;;27.57;18.83;;;;;;;0.55;100.00;98900.08;1452355;89;21770;-76
2023/12/01 00:23:12;;;;;;;27.50;17.13;;;;;;;0.54;100.00;98896.63;1451186;90;21820;-77
2023/12/01 00:25:39;;;;;;;29.20;17.67;;;;;;;0.47;100.00;98879.03;1459764;90;22815;-77
2023/12/01 00:28:05;;;;;;;25.70;17.23;;;;;;;0.60;100.00;98886.20;1451352;90;21725;-76
2023/12/01 00:30:31;;;;;;;26.60;14.93;;;;;;;0.63;100.00;98895.06;1450523;90;23279;-78
2023/12/01 00:32:57;;;;;;;24.77;15.93;;;;;;;0.61;100.00;98894.39;1452825;90;21763;-76
2023/12/01 00:35:24;;;;;;;27.20;15.60;;;;;;;0.61;100.00;98902.20;1432274;90;21795;-77
2023/12/01 00:37:50;;;;;;;26.20;15.10;;;;;;;0.56;100.00;98894.73;1448608;90;21898;-77
2023/12/01 00:40:16;;;;;;;25.03;16.10;;;;;;;0.54;100.00;98907.52;1463967;90;22160;-78
2023/12/01 00:42:42;;;;;;;21.73;13.80;;;;;;;0.50;100.00;98908.24;1454512;90;21735;-75
2023/12/01 00:45:09;;;;;;;19.73;13.40;;;;;;;0.48;100.00;98902.32;1457774;90;22610;-78
2023/12/01 00:47:35;;;;;;;22.80;13.93;;;;;;;0.45;100.00;98909.07;1454446;90;21648;-76
2023/12/01 00:50:02;;;;;;;20.83;13.83;;;;;;;0.46;100.00;98915.92;1456806;90;22772;-77
2023/12/01 00:52:29;;;;;;;21.27;14.23;;;;;;;0.45;100.00;98921.61;1451599;90;22528;-78
2023/12/01 00:54:55;;;;;;;20.13;13.10;;;;;;;0.48;100.00;98923.63;1454574;90;22614;-78
2023/12/01 00:57:22;;;;;;;22.33;14.10;;;;;;;0.47;100.00;98923.28;1445631;89;21809;-77
2023/12/01 00:59:48;;;;;;;24.93;15.30;;;;;;;0.48;100.00;98935.34;1452719;90;22542;-76
2023/12/01 01:02:15;;;;;;;25.40;14.53;;;;;;;0.48;100.00;98937.94;1452901;90;22644;-78
2023/12/01 01:04:41;;;;;;;25.07;15.10;;;;;;;0.47;100.00;98941.50;1454892;90;21631;-77
2023/12/01 01:07:07;;;;;;;32.87;20.17;;;;;;;0.43;100.00;98950.86;1447189;90;22320;-77
2023/12/01 01:09:34;;;;;;;22.80;14.60;;;;;;;0.43;100.00;98941.75;1456760;90;21653;-78
2023/12/01 01:12:01;;;;;;;24.10;14.13;;;;;;;0.48;100.00;98930.13;1454772;90;22903;-78
2023/12/01 01:14:27;;;;;;;22.13;13.23;;;;;;;0.49;100.00;98926.57;1447173;90;21616;-77
2023/12/01 01:16:54;;;;;;;20.77;13.83;;;;;;;0.51;100.00;98920.30;1453602;90;22653;-76
2023/12/01 01:19:20;;;;;;;22.70;15.03;;;;;;;0.55;100.00;98931.33;1460515;90;21664;-77
2023/12/01 01:21:46;;;;;;;23.10;14.20;;;;;;;0.56;100.00;98935.57;1449360;90;21710;-77
2023/12/01 01:24:12;;;;;;;21.47;13.40;;;;;;;0.56;100.00;98932.97;1450996;90;22563;-78
2023/12/01 01:26:38;;;;;;;21.53;13.67;;;;;;;0.51;100.00;98935.09;1458316;90;21660;-76
2023/12/01 01:29:04;;;;;;;21.23;13.17;;;;;;;0.47;100.00;98939.72;1455807;90;21699;-74
2023/12/01 01:31:31;;;;;;;21.87;13.93;;;;;;;0.43;100.00;98930.48;1448170;90;22248;-76
2023/12/01 01:33:58;;;;;;;21.53;13.93;;;;;;;0.42;100.00;98915.34;1456611;90;21732;-76
2023/12/01 01:36:24;;;;;;;19.17;12.93;;;;;;;0.44;100.00;98918.66;1449659;90;21659;-77
2023/12/01 01:38:50;;;;;;;23.67;14.77;;;;;;;0.39;100.00;98931.20;1458071;90;22769;-76
2023/12/01 01:41:16;;;;;;;23.47;13.83;;;;;;;0.44;100.00;98925.17;1430434;90;21846;-77
2023/12/01 01:43:42;;;;;;;21.63;12.53;;;;;;;0.45;100.00;98932.02;1456467;90;21633;-76
2023/12/01 01:46:12;;;;;;;20.87;13.63;;;;;;;0.50;100.00;98946.47;1452925;90;22800;-75
2023/12/01 01:48:38;;;;;;;23.30;12.87;;;;;;;0.54;100.00;98940.88;1446552;90;21682;-75
2023/12/01 01:51:13;;;;;;;20.90;13.80;;;;;;;0.50;100.00;98951.67;1452127;90;21922;-77
2023/12/01 01:53:45;;;;;;;18.73;13.63;;;;;;;0.51;100.00;98953.32;1450221;90;22575;-76
2023/12/01 01:56:12;;;;;;;20.47;12.77;;;;;;;0.50;100.00;98946.47;1447061;89;21951;-76
2023/12/01 01:58:40;;;;;;;19.13;13.07;;;;;;;0.47;100.00;98942.33;1446771;90;22592;-78
2023/12/01 02:01:07;;;;;;;17.80;10.90;;;;;;;0.41;100.00;98940.20;1448617;90;21894;-78
2023/12/01 02:03:35;;;;;;;20.10;10.93;;;;;;;0.37;100.00;98954.39;1448606;90;21698;-78
2023/12/01 02:06:06;;;;;;;19.40;11.90;;;;;;;0.39;100.00;98952.50;1447859;90;21695;-76
2023/12/01 02:08:30;;;;;;;19.53;11.63;;;;;;;0.37;100.00;98949.18;1447743;89;21807;-77
2023/12/01 02:10:58;;;;;;;15.13;9.87;;;;;;;0.41;100.00;98950.14;1448581;90;23344;-77
2023/12/01 02:13:24;;;;;;;17.13;10.47;;;;;;;0.38;100.00;98948.25;1458532;90;21684;-76
2023/12/01 02:15:52;;;;;;;18.47;11.63;;;;;;;0.36;100.00;98944.94;1453353;90;23174;-77
2023/12/01 02:18:33;;;;;;;17.57;10.87;;;;;;;0.36;100.00;98945.75;1458967;90;21645;-76
2023/12/01 02:21:00;;;;;;;14.73;10.50;;;;;;;0.32;100.00;98944.34;1450689;90;21557;-78
2023/12/01 02:23:27;;;;;;;17.53;10.60;;;;;;;0.33;100.00;98939.48;1452403;90;22315;-75
2023/12/01 02:25:54;;;;;;;16.33;11.00;;;;;;;0.32;100.00;98932.64;1460850;90;22153;-77
2023/12/01 02:28:20;;;;;;;15.27;10.47;;;;;;;0.32;100.00;98943.05;1453296;90;21823;-76
2023/12/01 02:30:52;;;;;;;16.87;10.70;;;;;;;0.32;100.00;98950.86;1448381;90;21775;-78
2023/12/01 02:33:20;;;;;;;19.07;11.63;;;;;;;0.33;100.00;98960.31;1454009;90;21726;-76
2023/12/01 02:35:52;;;;;;;23.13;13.40;;;;;;;0.29;100.00;98966.70;1450011;90;21868;-77
2023/12/01 02:38:20;;;;;;;19.97;12.70;;;;;;;0.18;100.00;98960.20;1449514;89;22548;-76
2023/12/01 02:40:50;;;;;;;17.27;10.73;;;;;;;0.26;100.00;98955.69;1451522;90;22295;-78
2023/12/01 02:43:17;;;;;;;17.53;11.63;;;;;;;0.28;100.00;98953.33;1447372;90;21861;-77
2023/12/01 02:45:44;;;;;;;19.40;11.67;;;;;;;0.31;100.00;98947.88;1448186;90;21610;-76
2023/12/01 02:48:11;;;;;;;18.57;11.77;;;;;;;0.31;100.00;98947.88;1452359;90;21691;-77
2023/12/01 02:50:37;;;;;;;21.17;13.00;;;;;;;0.29;100.00;98943.73;1450298;90;22514;-76
2023/12/01 02:53:06;;;;;;;20.37;12.47;;;;;;;0.20;100.00;98942.22;1456780;90;21548;-77
2023/12/01 02:55:32;;;;;;;73.10;37.73;;;;;;;0.21;100.00;98935.24;1462185;90;21609;-76
2023/12/01 02:57:58;;;;;;;23.63;13.63;;;;;;;0.19;100.00;98939.25;1445897;90;21631;-77
2023/12/01 03:00:25;;;;;;;20.73;14.13;;;;;;;0.21;100.00;98939.14;1461964;90;21565;-77
2023/12/01 03:02:52;;;;;;;21.57;12.80;;;;;;;0.25;100.00;98939.25;1457492;90;21597;-77
2023/12/01 03:05:20;;;;;;;22.23;13.77;;;;;;;0.25;100.00;98948.36;1454551;90;21624;-76
2023/12/01 03:07:47;;;;;;;26.73;14.47;;;;;;;0.31;100.00;98966.09;1445102;90;22887;-76
2023/12/01 03:10:14;;;;;;;24.10;14.10;;;;;;;0.33;100.00;98970.72;1451708;90;21737;-78
2023/12/01 03:12:43;;;;;;;26.60;14.77;;;;;;;0.36;100.00;98979.59;1457490;90;21835;-76
2023/12/01 03:15:20;;;;;;;24.43;15.17;;;;;;;0.39;100.00;98965.52;1450579;90;21750;-76
2023/12/01 03:17:43;;;;;;;24.40;15.43;;;;;;;0.40;100.00;98961.95;1453347;90;21911;-77
2023/12/01 03:20:10;;;;;;;26.00;16.70;;;;;;;0.41;100.00;98955.83;1451010;90;21629;-75
2023/12/01 03:22:42;;;;;;;29.93;16.57;;;;;;;0.44;100.00;98959.01;1452619;90;21652;-76
2023/12/01 03:25:12;;;;;;;25.30;14.13;;;;;;;0.48;100.00;98962.19;1453814;90;21702;-77
2023/12/01 03:27:40;;;;;;;25.03;14.73;;;;;;;0.53;100.00;98958.77;1458018;90;21885;-77
2023/12/01 03:30:15;;;;;;;26.17;15.27;;;;;;;0.59;100.00;98954.38;1452752;90;21776;-76
2023/12/01 03:32:53;;;;;;;29.70;17.20;;;;;;;0.62;100.00;98959.34;1455828;90;21785;-76
2023/12/01 03:35:22;;;;;;;26.43;15.13;;;;;;;0.66;100.00;98965.13;1457375;90;21695;-75
2023/12/01 03:37:49;;;;;;;30.73;17.47;;;;;;;0.68;100.00;98950.22;1448132;90;21904;-77
2023/12/01 03:40:16;;;;;;;28.53;17.17;;;;;;;0.71;100.00;98949.98;1452233;90;21735;-76
2023/12/01 03:42:46;;;;;;;27.47;16.70;;;;;;;0.73;100.00;98944.18;1453357;90;21762;-77
2023/12/01 03:45:13;;;;;;;34.03;18.67;;;;;;;0.70;100.00;98958.75;1451813;90;22542;-76
2023/12/01 03:47:45;;;;;;;28.07;15.77;;;;;;;0.69;100.00;98963.58;1456671;90;21893;-76
2023/12/01 03:50:12;;;;;;;33.07;16.97;;;;;;;0.72;100.00;98956.01;1460344;90;22559;-76
2023/12/01 03:52:45;;;;;;;31.37;15.27;;;;;;;0.78;100.00;98945.95;1447087;90;21750;-76
2023/12/01 03:55:13;;;;;;;25.57;14.60;;;;;;;0.82;100.00;98936.94;1452827;90;22704;-76
2023/12/01 03:57:40;;;;;;;26.07;14.13;;;;;;;0.92;100.00;98944.02;1458820;90;21757;-76
2023/12/01 04:00:16;;;;;;;28.90;17.07;;;;;;;0.91;100.00;98947.09;1457776;90;21689;-77
2023/12/01 04:02:42;;;;;;;33.30;18.53;;;;;;;0.86;100.00;98946.63;1452217;90;21798;-78
2023/12/01 04:05:18;;;;;;;30.50;16.87;;;;;;;0.79;100.00;98943.69;1448182;90;23094;-77
2023/12/01 04:07:50;;;;;;;31.50;18.67;;;;;;;0.78;100.00;98935.53;1458997;90;21775;-78
2023/12/01 04:10:15;;;;;;;27.37;16.40;;;;;;;0.76;100.00;98927.01;1455931;90;21885;-77
2023/12/01 04:12:46;;;;;;;30.70;16.93;;;;;;;0.75;100.00;98925.36;1459206;90;21735;-77
2023/12/01 04:15:20;;;;;;;39.60;19.77;;;;;;;0.77;100.00;98929.95;1456412;90;21899;-77
2023/12/01 04:17:49;;;;;;;33.50;18.60;;;;;;;0.80;100.00;98926.28;1459595;90;21362;-77
2023/12/01 04:20:21;;;;;;;26.73;15.53;;;;;;;0.83;100.00;98929.46;1449716;90;21903;-77
2023/12/01 04:22:53;;;;;;;29.73;17.43;;;;;;;0.85;100.00;98934.09;1460243;90;22021;-77
2023/12/01 04:25:20;;;;;;;30.97;16.60;;;;;;;0.93;100.00;98930.05;1458517;90;22678;-77
2023/12/01 04:27:47;;;;;;;31.50;18.90;;;;;;;0.93;100.00;98930.05;1455524;90;21914;-77
2023/12/01 04:30:17;;;;;;;27.77;16.43;;;;;;;0.88;100.00;98950.77;1456236;90;21773;-77
2023/12/01 04:32:47;;;;;;;33.53;18.60;;;;;;;0.86;100.00;98938.81;1452437;90;22129;-79
2023/12/01 04:35:14;;;;;;;35.73;17.20;;;;;;;0.84;100.00;98936.34;1453554;90;22099;-77
2023/12/01 04:37:41;;;;;;;28.57;16.70;;;;;;;0.80;100.00;98948.42;1455528;90;21480;-77
2023/12/01 04:40:15;;;;;;;26.47;15.20;;;;;;;0.65;100.00;98959.58;1426713;90;21891;-76
2023/12/01 04:42:46;;;;;;;30.33;16.03;;;;;;;0.65;100.00;98959.58;1452419;90;22591;-75
2023/12/01 04:45:15;;;;;;;27.58;15.05;;;;;;;0.62;100.00;98961.12;1451267;90;22784;-78
2023/12/01 04:47:43;;;;;;;31.60;17.10;;;;;;;0.63;100.00;98967.97;1455450;90;21384;-77
2023/12/01 04:50:14;;;;;;;31.13;16.70;;;;;;;0.63;100.00;98967.97;1453895;90;21850;-75
2023/12/01 04:52:46;;;;;;;37.58;20.57;;;;;;;0.62;100.00;98959.34;1453854;90;21791;-77
2023/12/01 04:55:15;;;;;;;30.03;16.33;;;;;;;0.65;100.00;98969.99;1448893;90;21554;-77
2023/12/01 04:57:42;;;;;;;30.17;17.60;;;;;;;0.65;100.00;98969.99;1454145;90;21686;-76
2023/12/01 05:00:21;;;;;;;30.40;16.17;;;;;;;0.65;100.00;98983.02;1451564;90;21869;-76
2023/12/01 05:02:59;;;;;;;30.63;17.53;;;;;;;0.59;100.00;98992.12;1450742;89;22645;-76
2023/12/01 05:05:31;;;;;;;24.50;13.73;;;;;;;0.61;100.00;99001.96;1451027;90;21957;-76
2023/12/01 05:08:00;;;;;;;31.23;15.30;;;;;;;0.55;100.00;99000.31;1451584;90;21789;-75
2023/12/01 05:10:30;;;;;;;27.93;16.20;;;;;;;0.48;100.00;98998.64;1449339;90;22706;-77
2023/12/01 05:13:00;;;;;;;30.37;16.97;;;;;;;0.41;100.00;99002.20;1445336;90;21721;-76
2023/12/01 05:15:28;;;;;;;31.47;16.53;;;;;;;0.39;100.00;98996.75;1448097;90;22355;-77
2023/12/01 05:18:00;;;;;;;26.40;14.47;;;;;;;0.37;100.00;99003.36;1453809;90;21930;-77
2023/12/01 05:20:27;;;;;;;30.10;16.37;;;;;;;0.38;100.00;99002.44;1454470;90;21646;-76
2023/12/01 05:22:57;;;;;;;30.70;15.93;;;;;;;0.41;100.00;99000.89;1456892;90;22622;-77
2023/12/01 05:25:32;;;;;;;25.87;14.13;;;;;;;0.45;100.00;99004.91;1446720;89;21958;-76
2023/12/01 05:27:59;;;;;;;27.63;15.13;;;;;;;0.45;100.00;99005.38;1458163;90;22051;-77
2023/12/01 05:30:33;;;;;;;28.47;14.47;;;;;;;0.45;100.00;99007.51;1460894;90;21684;-77
2023/12/01 05:32:59;;;;;;;26.47;14.10;;;;;;;0.49;100.00;99008.13;1459418;90;21758;-77
2023/12/01 05:35:27;;;;;;;24.73;12.80;;;;;;;0.50;100.00;99003.73;1449758;90;21646;-79
2023/12/01 05:37:56;;;;;;;28.03;14.37;;;;;;;0.49;100.00;98993.80;1449943;90;21860;-79
2023/12/01 05:40:28;;;;;;;27.20;15.37;;;;;;;0.54;100.00;98986.92;1453606;90;22709;-77
2023/12/01 05:42:57;;;;;;;24.47;15.43;;;;;;;0.59;100.00;98984.31;1459313;90;21944;-76
2023/12/01 05:45:33;;;;;;;28.63;14.30;;;;;;;0.64;100.00;98977.46;1453153;90;21810;-77
2023/12/01 05:48:02;;;;;;;24.90;13.17;;;;;;;0.70;100.00;98976.98;1443769;90;21712;-77
2023/12/01 05:50:31;;;;;;;24.53;13.27;;;;;;;0.73;100.00;98972.00;1463797;90;21692;-77
2023/12/01 05:53:03;;;;;;;31.03;15.10;;;;;;;0.73;100.00;98970.22;1458299;90;22005;-76
2023/12/01 05:55:38;;;;;;;87.03;37.37;;;;;;;0.70;100.00;98981.36;1461678;90;21853;-78
2023/12/01 05:58:12;;;;;;;38.87;18.93;;;;;;;0.70;100.00;98981.36;1452169;90;21765;-78
2023/12/01 06:00:39;;;;;;;27.10;14.90;;;;;;;0.66;100.00;98983.36;1458664;90;22794;-78
2023/12/01 06:03:08;;;;;;;29.20;13.90;;;;;;;0.58;100.00;98987.87;1453924;90;21796;-78
2023/12/01 06:05:36;;;;;;;22.73;12.47;;;;;;;0.58;100.00;98987.87;1456946;90;22649;-78
2023/12/01 06:08:04;;;;;;;19.70;12.40;;;;;;;0.57;100.00;98998.40;1454153;90;22756;-79
2023/12/01 06:10:36;;;;;;;23.83;13.73;;;;;;;0.51;100.00;98989.77;1451712;90;21840;-79
2023/12/01 06:12:59;;;;;;;27.37;15.27;;;;;;;0.55;100.00;98988.13;1451328;90;22648;-78
2023/12/01 06:15:29;;;;;;;36.30;17.23;;;;;;;0.53;100.00;98984.80;1451154;90;22828;-78
2023/12/01 06:17:54;;;;;;;27.83;15.30;;;;;;;0.54;100.00;98986.92;1456582;90;22087;-77
2023/12/01 06:20:22;;;;;;;32.60;15.67;;;;;;;0.56;100.00;98985.03;1452948;90;21772;-78
2023/12/01 06:22:56;;;;;;;28.00;15.97;;;;;;;0.56;100.00;98995.45;1451501;90;21889;-78
2023/12/01 06:25:31;;;;;;;27.97;15.83;;;;;;;0.55;100.00;98991.20;1450625;90;21842;-78
2023/12/01 06:27:58;;;;;;;25.63;13.50;;;;;;;0.53;100.00;98990.48;1451588;90;21814;-79
2023/12/01 06:30:28;;;;;;;27.15;14.43;;;;;;;0.54;100.00;98992.12;1456405;90;22704;-77
2023/12/01 06:32:55;;;;;;;32.67;14.33;;;;;;;0.50;100.00;99006.34;1451296;90;21576;-78
2023/12/01 06:35:22;;;;;;;21.93;12.40;;;;;;;0.43;100.00;99008.13;1451166;90;21871;-78
2023/12/01 06:37:49;;;;;;;24.93;12.90;;;;;;;0.41;100.00;99019.11;1455771;90;21602;-79
2023/12/01 06:40:17;;;;;;;23.93;12.77;;;;;;;0.42;100.00;99014.25;1451338;90;21809;-76
2023/12/01 06:42:49;;;;;;;22.10;12.80;;;;;;;0.44;100.00;99029.77;1450770;90;21818;-75
2023/12/01 06:45:19;;;;;;;18.73;10.73;;;;;;;0.47;100.00;99030.01;1452789;90;22541;-75
2023/12/01 06:47:48;;;;;;;22.70;11.40;;;;;;;0.57;100.00;99036.15;1458430;90;21773;-74
2023/12/01 06:50:18;;;;;;;21.68;11.08;;;;;;;0.65;100.00;99051.53;1447989;90;21786;-76
2023/12/01 06:52:50;;;;;;;20.90;11.67;;;;;;;0.73;100.00;99052.73;1459616;90;22300;-76
2023/12/01 06:55:16;;;;;;;19.67;11.03;;;;;;;0.75;100.00;99048.22;1462185;90;21924;-76
2023/12/01 06:57:45;;;;;;;22.23;10.07;;;;;;;0.75;100.00;99047.77;1453551;90;21636;-75
2023/12/01 07:00:37;;;;;;;15.07;8.87;;;;;;;0.76;100.00;99049.41;1444577;90;22625;-74
2023/12/01 07:02:50;;;;;;;22.67;12.33;;;;;;;0.72;100.00;99054.52;1444813;89;21927;-77
2023/12/01 07:05:19;;;;;;;24.97;12.20;;;;;;;0.72;100.00;99054.52;1454030;90;22362;-76
2023/12/01 07:07:47;;;;;;;20.80;10.10;;;;;;;0.73;100.00;99061.85;1453984;90;21958;-76
2023/12/01 07:10:17;;;;;;;19.67;9.63;;;;;;;0.65;100.00;99063.25;1458490;90;22095;-76
2023/12/01 07:12:43;;;;;;;19.17;9.97;;;;;;;0.62;100.00;99067.40;1457395;90;21834;-77
2023/12/01 07:15:12;;;;;;;18.53;10.00;;;;;;;0.62;100.00;99067.40;1458150;90;21693;-77
2023/12/01 07:17:39;;;;;;;21.40;11.13;;;;;;;0.65;100.00;99057.23;1456892;90;21706;-77
2023/12/01 07:20:14;;;;;;;17.83;9.93;;;;;;;0.65;100.00;99053.32;1450381;90;21863;-77
2023/12/01 07:22:36;;;;;;;15.30;9.70;;;;;;;0.71;100.00;99054.14;1454606;90;21939;-76
2023/12/01 07:25:03;;;;;;;15.93;9.57;;;;;;;0.83;100.00;99055.79;1453543;90;21384;-76
2023/12/01 07:27:29;;;;;;;19.10;9.07;;;;;;;0.83;100.00;99049.28;1450575;90;21975;-75
2023/12/01 07:29:55;;;;;;;20.83;10.60;;;;;;;0.83;100.00;99049.28;1447301;90;22797;-78
2023/12/01 07:32:21;;;;;;;23.47;11.30;;;;;;;0.88;100.00;99053.66;1458341;90;21736;-77
2023/12/01 07:34:48;;;;;;;21.70;10.27;;;;;;;0.86;100.00;99059.48;1458281;90;22117;-78
2023/12/01 07:37:14;;;;;;;17.90;10.03;;;;;;;0.78;100.00;99072.27;1452389;89;21824;-77
2023/12/01 07:39:40;;;;;;;17.63;9.60;;;;;;;0.78;100.00;99072.27;1453714;90;22741;-76
2023/12/01 07:42:07;;;;;;;15.10;8.73;;;;;;;0.77;100.00;99066.69;1456444;90;21980;-75
2023/12/01 07:44:34;;;;;;;14.73;8.60;;;;;;;0.76;100.00;99069.42;1451781;90;22783;-77
2023/12/01 07:47:04;;;;;;;14.63;7.63;;;;;;;0.83;100.00;99068.81;1434776;90;22822;-77
2023/12/01 07:49:28;;;;;;;15.27;9.97;;;;;;;0.88;100.00;99067.98;1455587;90;22200;-76
2023/12/01 07:51:55;;;;;;;15.60;9.40;;;;;;;0.89;100.00;99063.16;1450316;90;21880;-76
2023/12/01 07:54:22;;;;;;;16.90;9.40;;;;;;;0.89;100.00;99063.16;1452223;90;22827;-77
2023/12/01 07:56:48;;;;;;;15.63;10.07;;;;;;;0.93;100.00;99069.42;1451785;90;21856;-77
2023/12/01 07:59:14;;;;;;;13.97;8.70;;;;;;;0.93;100.00;99069.42;1450576;90;21875;-76
2023/12/01 08:01:41;;;;;;;15.77;9.23;;;;;;;0.84;100.00;99060.07;1452481;90;23121;-76
2023/12/01 08:04:09;;;;;;;15.70;9.63;;;;;;;0.85;100.00;99055.69;1449656;90;21948;-76
2023/12/01 08:06:36;;;;;;;18.10;11.43;;;;;;;0.76;100.00;99065.04;1453662;90;21891;-76
2023/12/01 08:09:02;;;;;;;17.93;10.20;;;;;;;0.76;100.00;99065.04;1448141;90;21886;-76
2023/12/01 08:11:30;;;;;;;15.47;8.47;;;;;;;0.75;100.00;99069.91;1458027;90;21844;-77
2023/12/01 08:13:56;;;;;;;14.90;8.13;;;;;;;0.80;100.00;99092.49;1448172;90;22848;-78
2023/12/01 08:16:22;;;;;;;15.73;9.67;;;;;;;0.80;100.00;99104.22;1452219;90;21838;-76
2023/12/01 08:18:49;;;;;;;16.07;9.43;;;;;;;0.84;100.00;99101.75;1438616;90;21877;-77
2023/12/01 08:21:15;;;;;;;13.80;8.60;;;;;;;0.82;100.00;99108.84;1452159;90;21849;-77
2023/12/01 08:23:41;;;;;;;16.87;10.57;;;;;;;0.82;100.00;99108.84;1445567;90;23022;-77
2023/12/01 08:26:09;;;;;;;13.33;8.13;;;;;;;0.79;100.00;99110.38;1451128;90;21740;-77
2023/12/01 08:28:35;;;;;;;14.07;8.60;;;;;;;0.79;100.00;99110.38;1452431;90;21867;-78
2023/12/01 08:31:03;;;;;;;14.33;8.40;;;;;;;0.88;100.00;99112.75;1456395;90;22223;-77
2023/12/01 08:33:29;;;;;;;23.17;12.43;;;;;;;0.88;100.00;99112.75;1451919;90;22135;-77
2023/12/01 08:35:55;;;;;;;12.63;8.37;;;;;;;0.99;100.00;99105.42;1449119;90;21807;-77
2023/12/01 08:38:21;;;;;;;14.63;9.20;;;;;;;0.99;100.00;99105.42;1448325;90;22223;-77
2023/12/01 08:40:47;;;;;;;16.67;10.00;;;;;;;1.05;100.00;99110.97;1456042;90;21377;-76
2023/12/01 08:43:13;;;;;;;13.33;8.07;;;;;;;1.09;100.00;99099.83;1447147;90;22166;-77
2023/12/01 08:45:39;;;;;;;13.53;8.70;;;;;;;1.10;100.00;99101.03;1455138;90;23029;-77
2023/12/01 08:48:05;;;;;;;21.17;13.00;;;;;;;1.04;100.00;99093.69;1438844;90;21370;-78
2023/12/01 08:50:31;;;;;;;15.97;10.17;;;;;;;1.04;100.00;99093.69;1442877;90;22089;-77
2023/12/01 08:52:57;;;;;;;16.23;9.77;;;;;;;1.03;100.00;99102.91;1420256;91;21928;-77
2023/12/01 08:55:24;;;;;;;17.97;10.90;;;;;;;1.03;100.00;99102.91;1445258;90;22103;-77
2023/12/01 08:57:50;;;;;;;19.30;11.63;;;;;;;1.01;100.00;99097.02;1445986;90;22281;-76
2023/12/01 09:00:20;;;;;;;14.53;9.73;;;;;;;1.05;100.00;99102.33;1442388;90;22112;-77
2023/12/01 09:02:46;;;;;;;14.93;8.57;;;;;;;1.03;100.00;99106.83;1444494;90;21961;-77
2023/12/01 09:05:12;;;;;;;13.30;8.27;;;;;;;1.03;100.00;99110.73;1444324;90;22175;-76
2023/12/01 09:07:38;;;;;;;14.73;9.53;;;;;;;1.03;100.00;99110.73;1449203;90;22167;-77
2023/12/01 09:10:05;;;;;;;12.80;8.43;;;;;;;1.16;100.00;99117.96;1449760;90;21833;-77
2023/12/01 09:12:31;;;;;;;14.30;9.33;;;;;;;1.16;100.00;99117.96;1446279;90;21936;-77
2023/12/01 09:14:57;;;;;;;13.27;8.93;;;;;;;1.13;100.00;99122.11;1441381;90;21929;-77
2023/12/01 09:17:24;;;;;;;13.17;8.57;;;;;;;1.13;100.00;99122.11;1451232;90;22249;-77
2023/12/01 09:19:50;;;;;;;14.13;9.73;;;;;;;1.18;100.00;99128.25;1453760;90;22936;-78
2023/12/01 09:22:16;;;;;;;13.40;9.17;;;;;;;1.17;100.00;99113.09;1445191;90;22491;-77
2023/12/01 09:24:43;;;;;;;13.83;9.30;;;;;;;1.17;100.00;99113.09;1446736;90;22119;-77
2023/12/01 09:27:09;;;;;;;14.87;9.07;;;;;;;1.30;100.00;99113.80;1446983;90;22879;-76
2023/12/01 09:29:35;;;;;;;14.40;9.30;;;;;;;1.30;100.00;99113.80;1446031;90;22247;-77
2023/12/01 09:32:01;;;;;;;13.17;9.60;;;;;;;1.38;100.00;99106.66;1438169;90;22219;-76
2023/12/01 09:34:27;;;;;;;17.87;10.27;;;;;;;1.46;100.00;99109.49;1444465;90;22211;-77
2023/12/01 09:36:53;;;;;;;16.27;9.50;;;;;;;1.48;100.00;99118.03;1446374;90;23203;-77
2023/12/01 09:39:20;;;;;;;10.90;8.00;;;;;;;1.54;100.00;99114.11;1449585;90;22189;-74
2023/12/01 09:41:48;;;;;;;13.73;9.43;;;;;;;1.54;100.00;99118.02;1448332;90;22214;-75
2023/12/01 09:44:15;;;;;;;16.20;9.77;;;;;;;1.55;100.00;99116.61;1451965;90;22264;-74
2023/12/01 09:46:43;;;;;;;15.40;10.03;;;;;;;1.60;100.00;99110.19;1448128;90;22167;-75
2023/12/01 09:49:10;;;;;;;12.80;8.47;;;;;;;1.61;100.00;99103.52;1450154;90;23016;-73
2023/12/01 09:51:36;;;;;;;14.50;9.73;;;;;;;1.59;100.00;99096.32;1447029;90;22327;-74
2023/12/01 09:54:04;;;;;;;15.60;10.30;;;;;;;1.55;100.00;99093.59;1442985;90;22086;-75
2023/12/01 09:56:31;;;;;;;16.57;10.73;;;;;;;1.49;100.00;99081.87;1443555;90;22153;-74
2023/12/01 09:58:58;;;;;;;14.10;9.50;;;;;;;1.55;100.00;99075.34;1372574;90;22133;-76
2023/12/01 10:01:25;;;;;;;16.90;11.03;;;;;;;1.57;100.00;99049.48;1373087;90;22006;-76
2023/12/01 10:03:53;;;;;;;13.57;8.70;;;;;;;1.59;100.00;99051.98;1373456;90;23005;-75
2023/12/01 10:06:19;;;;;;;13.20;9.03;;;;;;;1.65;100.00;99057.19;1372288;90;23002;-74
2023/12/01 10:08:49;;;;;;;14.43;9.40;;;;;;;1.69;100.00;99050.75;1374399;90;22109;-74
2023/12/01 10:11:23;;;;;;;13.40;8.57;;;;;;;1.72;100.00;99052.62;1371076;90;22085;-75
2023/12/01 10:13:50;;;;;;;12.30;8.70;;;;;;;1.76;100.00;99053.23;1370759;90;21953;-74
2023/12/01 10:16:17;;;;;;;14.67;9.23;;;;;;;1.77;100.00;99038.73;1373455;90;21997;-75
2023/12/01 10:18:59;;;;;;;15.30;10.47;;;;;;;1.77;100.00;99034.83;1379294;90;22012;-74
2023/12/01 10:21:47;;;;;;;16.17;10.30;;;;;;;1.75;100.00;99038.42;1528666;90;21977;-75
2023/12/01 10:24:23;;;;;;;16.37;10.57;;;;;;;1.71;100.00;99038.42;1527021;90;22879;-74
2023/12/01 10:26:48;;;;;;;15.33;10.53;;;;;;;1.73;100.00;99036.05;1527388;90;21998;-74
2023/12/01 10:29:35;;;;;;;15.50;11.13;;;;;;;1.71;100.00;99040.55;1375615;90;22065;-75
2023/12/01 10:32:06;;;;;;;12.63;9.90;;;;;;;1.73;100.00;99049.09;1429265;90;23080;-76
2023/12/01 10:34:33;;;;;;;15.00;10.67;;;;;;;1.79;100.00;99031.63;1434050;90;22109;-75
2023/12/01 10:37:00;;;;;;;18.20;10.70;;;;;;;1.83;100.00;99030.06;1372859;90;22050;-73
2023/12/01 10:39:27;;;;;;;15.47;10.60;;;;;;;1.80;100.00;99031.97;1356521;91;22946;-74
2023/12/01 10:41:58;;;;;;;14.07;10.10;;;;;;;1.70;100.00;99025.86;1361582;92;22235;-74
2023/12/01 10:44:26;;;;;;;18.20;12.28;;;;;;;1.65;100.00;99035.84;1372857;90;22005;-74
2023/12/01 10:46:55;;;;;;;17.37;11.40;;;;;;;1.60;100.00;99050.94;1372320;90;21235;-74
2023/12/01 10:49:22;;;;;;;18.00;11.13;;;;;;;1.56;100.00;99050.94;1371993;90;21984;-74
2023/12/01 10:51:53;;;;;;;17.30;12.20;;;;;;;1.55;100.00;99040.13;1378053;90;22045;-76
2023/12/01 10:54:25;;;;;;;15.08;11.45;;;;;;;1.55;100.00;99037.07;1468867;90;22088;-75
2023/12/01 10:57:16;;;;;;;18.93;12.43;;;;;;;1.55;100.00;99033.61;1451819;90;21397;-74
2023/12/01 10:59:47;;;;;;;17.73;11.75;;;;;;;1.53;100.00;99027.23;1446946;90;23294;-76
2023/12/01 11:02:15;;;;;;;18.90;11.90;;;;;;;1.46;100.00;99030.45;1442944;90;21674;-77
2023/12/01 11:04:46;;;;;;;17.50;12.77;;;;;;;1.48;100.00;99027.25;1372922;90;21953;-77
2023/12/01 11:07:22;;;;;;;;;;;;;;;1.53;100.00;99025.11;1531216;90;22852;-76
2023/12/01 11:09:59;;;;;;;18.30;12.73;;;;;;;1.54;100.00;99017.14;1528729;90;20220;-76
2023/12/01 11:12:38;;;;;;;17.67;12.13;;;;;;;1.55;100.00;99018.81;1375880;90;22090;-76
2023/12/01 11:15:25;;;;;;;19.97;12.07;;;;;;;1.60;100.00;99013.69;1528710;90;22045;-75
2023/12/01 11:17:51;;;;;;;16.13;11.20;;;;;;;1.65;100.00;98999.81;1407532;90;22112;-77
2023/12/01 11:20:36;;;;;;;18.77;12.17;;;;;;;1.64;100.00;98991.16;1374319;90;21999;-77
2023/12/01 11:23:14;;;;;;;17.23;12.20;;;;;;;1.62;100.00;98981.33;1523127;90;22044;-76
2023/12/01 11:25:48;;;;;;;17.13;12.03;;;;;;;1.68;100.00;98972.98;1527204;90;22030;-77